Time;durP1;ratioP1;P1;durP2;ratioP2;P2;SDS_P1;SDS_P2;PMS_P1;PMS_P2;Temp;Humidity;BMP_temperature;BMP_pressure;BME280_temperature;BME280_humidity;BME280_pressure;Samples;Min_cycle;Max_cycle;Signal;HPM_P1;HPM_P2
2023/04/27 00:00:19;;;;;;;;;11.50;10.25;;;;;;;;4975698;28;45374;-78
2023/04/27 00:02:45;;;;;;;;;12.25;9.75;;;;;;;;4975613;28;45356;-77
2023/04/27 00:05:10;;;;;;;;;14.75;12.75;;;;;;;;4975177;28;45420;-77
2023/04/27 00:07:35;;;;;;;;;14.75;14.25;;;;;;;;4975123;28;45602;-77
2023/04/27 00:10:01;;;;;;;;;14.75;13.50;;;;;;;;4975563;28;45787;-77
2023/04/27 00:12:26;;;;;;;;;8.50;5.75;;;;;;;;4975183;28;45482;-78
2023/04/27 00:14:51;;;;;;;;;9.00;7.50;;;;;;;;4975690;28;45464;-77
2023/04/27 00:17:16;;;;;;;;;14.25;13.00;;;;;;;;4973906;28;45485;-78
2023/04/27 00:19:42;;;;;;;;;10.75;10.75;;;;;;;;4975238;28;45447;-77
2023/04/27 00:22:07;;;;;;;;;14.00;13.50;;;;;;;;4975394;28;45467;-78
2023/04/27 00:24:32;;;;;;;;;11.25;11.25;;;;;;;;4975205;28;45509;-76
2023/04/27 00:26:58;;;;;;;;;16.25;13.75;;;;;;;;4975998;28;45357;-78
2023/04/27 00:29:23;;;;;;;;;17.75;16.25;;;;;;;;4976181;28;45402;-78
2023/04/27 00:31:48;;;;;;;;;15.25;12.00;;;;;;;;4975028;28;46041;-77
2023/04/27 00:34:13;;;;;;;;;13.75;13.50;;;;;;;;4975869;28;45413;-78
2023/04/27 00:36:38;;;;;;;;;16.75;16.25;;;;;;;;4975751;28;45387;-78
2023/04/27 00:39:05;;;;;;;;;17.50;17.50;;;;;;;;4975455;28;47164;-77
2023/04/27 00:41:31;;;;;;;;;19.50;16.00;;;;;;;;4975171;28;45377;-77
2023/04/27 00:43:56;;;;;;;;;18.50;17.25;;;;;;;;4975367;28;45452;-76
2023/04/27 00:46:22;;;;;;;;;17.50;17.00;;;;;;;;4976636;28;45531;-77
2023/04/27 00:48:47;;;;;;;;;16.50;14.75;;;;;;;;4961298;28;45460;-77
2023/04/27 00:51:12;;;;;;;;;19.00;18.25;;;;;;;;4959163;28;45327;-77
2023/04/27 00:53:38;;;;;;;;;16.00;16.00;;;;;;;;4959252;28;45402;-77
2023/04/27 00:56:03;;;;;;;;;13.75;12.50;;;;;;;;4957773;28;45568;-77
2023/04/27 00:58:29;;;;;;;;;12.75;11.75;;;;;;;;4964778;28;46985;-77
2023/04/27 01:00:54;;;;;;;;;12.50;12.50;;;;;;;;4978237;28;45433;-77
2023/04/27 01:03:19;;;;;;;;;17.00;14.75;;;;;;;;4978521;28;45378;-77
2023/04/27 01:05:45;;;;;;;;;13.50;11.75;;;;;;;;4978535;28;45514;-77
2023/04/27 01:08:10;;;;;;;;;12.75;12.75;;;;;;;;4978490;28;45499;-76
2023/04/27 01:10:36;;;;;;;;;12.75;11.75;;;;;;;;4978529;28;45373;-77
2023/04/27 01:13:01;;;;;;;;;20.00;15.50;;;;;;;;4978422;28;45393;-75
2023/04/27 01:15:27;;;;;;;;;14.25;13.00;;;;;;;;4976422;28;45489;-76
2023/04/27 01:17:58;;;;;;;;;11.75;10.00;;;;;;;;4977882;28;46157;-77
2023/04/27 01:20:23;;;;;;;;;10.00;10.00;;;;;;;;4978198;28;45393;-76
2023/04/27 01:22:49;;;;;;;;;11.25;11.25;;;;;;;;4978009;28;45407;-77
2023/04/27 01:25:14;;;;;;;;;13.00;13.00;;;;;;;;4978027;28;45364;-77
2023/04/27 01:27:39;;;;;;;;;11.50;11.50;;;;;;;;4977689;28;46209;-77
2023/04/27 01:30:05;;;;;;;;;6.00;6.00;;;;;;;;4977732;28;45590;-76
2023/04/27 01:32:30;;;;;;;;;11.50;10.50;;;;;;;;4978282;28;45405;-77
2023/04/27 01:34:55;;;;;;;;;11.75;8.50;;;;;;;;4977922;28;45448;-76
2023/04/27 01:37:21;;;;;;;;;8.00;8.00;;;;;;;;4977823;28;45924;-77
2023/04/27 01:39:46;;;;;;;;;10.00;10.00;;;;;;;;4976875;28;45652;-77
2023/04/27 01:42:11;;;;;;;;;11.00;11.00;;;;;;;;4978047;28;45503;-76
2023/04/27 01:44:37;;;;;;;;;8.25;8.25;;;;;;;;4976717;28;45516;-77
2023/04/27 01:47:02;;;;;;;;;9.25;9.25;;;;;;;;4974037;28;46375;-76
2023/04/27 01:49:27;;;;;;;;;12.75;11.00;;;;;;;;4956776;28;45443;-77
2023/04/27 01:51:52;;;;;;;;;15.00;11.00;;;;;;;;4958688;28;45444;-77
2023/04/27 01:54:17;;;;;;;;;9.25;9.25;;;;;;;;4958394;28;45430;-76
2023/04/27 01:56:43;;;;;;;;;11.25;9.50;;;;;;;;4957640;28;46326;-76
2023/04/27 01:59:08;;;;;;;;;14.00;13.25;;;;;;;;4957310;28;45520;-77
2023/04/27 02:01:33;;;;;;;;;8.00;8.00;;;;;;;;4958125;28;45370;-76
2023/04/27 02:03:58;;;;;;;;;7.00;7.00;;;;;;;;4957733;28;45371;-77
2023/04/27 02:06:24;;;;;;;;;11.75;11.75;;;;;;;;4962793;28;45489;-78
2023/04/27 02:08:49;;;;;;;;;9.75;9.75;;;;;;;;4977391;28;45474;-79
2023/04/27 02:11:14;;;;;;;;;15.25;13.50;;;;;;;;4976391;28;45369;-79
2023/04/27 02:13:39;;;;;;;;;9.00;9.00;;;;;;;;4977012;28;45347;-79
2023/04/27 02:16:05;;;;;;;;;10.00;10.00;;;;;;;;4977161;28;45582;-79
2023/04/27 02:18:31;;;;;;;;;12.75;11.75;;;;;;;;4976075;28;45316;-79
2023/04/27 02:20:56;;;;;;;;;10.75;8.75;;;;;;;;4977003;28;45468;-79
2023/04/27 02:23:21;;;;;;;;;14.75;12.25;;;;;;;;4976839;28;45505;-79
2023/04/27 02:25:46;;;;;;;;;11.00;9.50;;;;;;;;4977099;28;45417;-79
2023/04/27 02:28:12;;;;;;;;;11.50;11.00;;;;;;;;4976651;28;45421;-79
2023/04/27 02:30:38;;;;;;;;;9.25;9.25;;;;;;;;4977095;28;45290;-79
2023/04/27 02:33:03;;;;;;;;;11.25;10.25;;;;;;;;4977225;28;45389;-79
2023/04/27 02:35:31;;;;;;;;;10.75;10.75;;;;;;;;4977131;28;45325;-79
2023/04/27 02:37:56;;;;;;;;;14.25;13.25;;;;;;;;4976863;28;45416;-79
2023/04/27 02:40:21;;;;;;;;;14.50;12.50;;;;;;;;4977006;28;45396;-79
2023/04/27 02:42:46;;;;;;;;;13.00;12.00;;;;;;;;4976688;28;45353;-79
2023/04/27 02:45:12;;;;;;;;;10.00;10.00;;;;;;;;4976699;28;46020;-79
2023/04/27 02:47:37;;;;;;;;;9.75;9.75;;;;;;;;4968015;28;45468;-79
2023/04/27 02:50:02;;;;;;;;;12.00;12.00;;;;;;;;4959362;28;45537;-79
2023/04/27 02:52:28;;;;;;;;;10.00;9.50;;;;;;;;4976942;28;45418;-79
2023/04/27 02:54:53;;;;;;;;;12.50;11.25;;;;;;;;4976621;28;45393;-79
2023/04/27 02:57:18;;;;;;;;;13.50;10.50;;;;;;;;4976282;28;45306;-79
2023/04/27 02:59:43;;;;;;;;;12.50;12.50;;;;;;;;4976848;28;45263;-78
2023/04/27 03:02:08;;;;;;;;;14.25;13.75;;;;;;;;4976637;28;45305;-79
2023/04/27 03:04:35;;;;;;;;;13.25;12.50;;;;;;;;4976673;28;45376;-78
2023/04/27 03:07:01;;;;;;;;;14.00;14.00;;;;;;;;4976212;28;45326;-79
2023/04/27 03:09:26;;;;;;;;;18.75;17.00;;;;;;;;4975949;28;45279;-79
2023/04/27 03:11:51;;;;;;;;;18.00;14.50;;;;;;;;4975207;28;45289;-79
2023/04/27 03:14:16;;;;;;;;;20.75;19.25;;;;;;;;4975106;28;45390;-79
2023/04/27 03:16:42;;;;;;;;;21.50;20.25;;;;;;;;4976232;28;45373;-79
2023/04/27 03:19:07;;;;;;;;;23.75;23.75;;;;;;;;4976175;28;45401;-79
2023/04/27 03:21:32;;;;;;;;;16.25;16.25;;;;;;;;4976195;28;45434;-78
2023/04/27 03:23:57;;;;;;;;;19.75;19.00;;;;;;;;4976254;28;45334;-78
2023/04/27 03:26:22;;;;;;;;;19.50;19.50;;;;;;;;4976124;28;45377;-79
2023/04/27 03:28:48;;;;;;;;;21.25;20.75;;;;;;;;4976303;28;45440;-79
2023/04/27 03:31:13;;;;;;;;;22.50;21.25;;;;;;;;4975197;28;45289;-79
2023/04/27 03:33:39;;;;;;;;;23.75;21.00;;;;;;;;4976391;28;46174;-78
2023/04/27 03:36:05;;;;;;;;;26.50;23.25;;;;;;;;4976299;28;45427;-78
2023/04/27 03:38:31;;;;;;;;;27.50;24.50;;;;;;;;4976721;28;45456;-78
2023/04/27 03:40:56;;;;;;;;;20.25;20.25;;;;;;;;4976586;28;45548;-77
2023/04/27 03:43:22;;;;;;;;;24.75;23.75;;;;;;;;4976799;28;45408;-79
2023/04/27 03:45:47;;;;;;;;;24.75;23.00;;;;;;;;4976760;28;45417;-79
2023/04/27 03:48:13;;;;;;;;;19.75;19.75;;;;;;;;4962819;28;45424;-78
2023/04/27 03:50:38;;;;;;;;;25.75;22.75;;;;;;;;4963402;28;45457;-79
2023/04/27 03:53:03;;;;;;;;;23.75;22.50;;;;;;;;4975630;28;45975;-78
2023/04/27 03:55:30;;;;;;;;;20.50;20.50;;;;;;;;4975610;28;45460;-78
2023/04/27 03:57:55;;;;;;;;;27.00;23.00;;;;;;;;4975968;28;45382;-79
2023/04/27 04:00:21;;;;;;;;;20.50;19.50;;;;;;;;4975867;28;45494;-78
2023/04/27 04:02:46;;;;;;;;;19.50;19.50;;;;;;;;4975617;28;45901;-78
2023/04/27 04:05:13;;;;;;;;;24.50;23.00;;;;;;;;4974423;28;45258;-78
2023/04/27 04:07:40;;;;;;;;;21.50;20.25;;;;;;;;4975680;28;45452;-78
2023/04/27 04:10:06;;;;;;;;;24.25;20.75;;;;;;;;4975112;28;45476;-79
2023/04/27 04:12:31;;;;;;;;;20.25;20.25;;;;;;;;4974195;28;46938;-79
2023/04/27 04:14:56;;;;;;;;;22.25;21.75;;;;;;;;4975321;28;45324;-78
2023/04/27 04:17:21;;;;;;;;;21.00;19.00;;;;;;;;4975674;28;45397;-79
2023/04/27 04:19:46;;;;;;;;;16.50;16.50;;;;;;;;4975483;28;45470;-78
2023/04/27 04:22:12;;;;;;;;;21.25;18.50;;;;;;;;4978030;28;45965;-79
2023/04/27 04:24:38;;;;;;;;;19.50;17.50;;;;;;;;4978668;28;45297;-79
2023/04/27 04:27:04;;;;;;;;;22.25;20.25;;;;;;;;4978912;28;45397;-78
2023/04/27 04:29:29;;;;;;;;;17.75;17.75;;;;;;;;4978885;28;45337;-79
2023/04/27 04:31:55;;;;;;;;;17.75;17.25;;;;;;;;4978695;28;45994;-79
2023/04/27 04:34:20;;;;;;;;;18.50;17.25;;;;;;;;4977711;28;45924;-79
2023/04/27 04:36:45;;;;;;;;;18.00;17.25;;;;;;;;4978735;28;45319;-79
2023/04/27 04:39:11;;;;;;;;;23.50;19.75;;;;;;;;4978956;28;45402;-78
2023/04/27 04:41:37;;;;;;;;;15.25;15.25;;;;;;;;4978642;28;46075;-79
2023/04/27 04:44:02;;;;;;;;;15.25;13.00;;;;;;;;4978462;28;45207;-78
2023/04/27 04:46:27;;;;;;;;;21.00;18.50;;;;;;;;4978766;28;45309;-79
2023/04/27 04:48:53;;;;;;;;;16.00;14.25;;;;;;;;4959908;28;45489;-79
2023/04/27 04:51:19;;;;;;;;;23.25;20.00;;;;;;;;4971488;28;45486;-78
2023/04/27 04:53:44;;;;;;;;;18.25;18.25;;;;;;;;4978209;28;45393;-78
2023/04/27 04:56:13;;;;;;;;;21.50;20.50;;;;;;;;4978721;28;45331;-78
2023/04/27 04:58:38;;;;;;;;;20.00;18.75;;;;;;;;4978976;28;45408;-78
2023/04/27 05:01:04;;;;;;;;;22.50;19.75;;;;;;;;4978796;28;45526;-77
2023/04/27 05:03:29;;;;;;;;;28.50;26.00;;;;;;;;4978215;28;45481;-78
2023/04/27 05:05:54;;;;;;;;;25.75;23.25;;;;;;;;4978638;28;45456;-78
2023/04/27 05:08:19;;;;;;;;;17.00;14.00;;;;;;;;4978132;28;45444;-77
2023/04/27 05:10:51;;;;;;;;;18.25;18.25;;;;;;;;4978112;28;45423;-77
2023/04/27 05:13:16;;;;;;;;;23.25;22.00;;;;;;;;4978340;28;45424;-78
2023/04/27 05:15:41;;;;;;;;;18.75;16.50;;;;;;;;4978214;28;45396;-78
2023/04/27 05:18:07;;;;;;;;;24.50;21.50;;;;;;;;4978241;28;45388;-78
2023/04/27 05:20:35;;;;;;;;;19.75;17.75;;;;;;;;4978193;28;47166;-78
2023/04/27 05:23:01;;;;;;;;;23.50;23.50;;;;;;;;4977609;28;45321;-77
2023/04/27 05:25:28;;;;;;;;;26.75;24.00;;;;;;;;4977866;28;45316;-79
2023/04/27 05:27:53;;;;;;;;;22.75;21.50;;;;;;;;4978066;28;45412;-77
2023/04/27 05:30:19;;;;;;;;;25.25;25.25;;;;;;;;4977738;28;46248;-78
2023/04/27 05:32:44;;;;;;;;;23.75;17.50;;;;;;;;4977846;28;45416;-78
2023/04/27 05:35:09;;;;;;;;;22.75;17.75;;;;;;;;4978229;28;45382;-78
2023/04/27 05:37:34;;;;;;;;;18.00;17.00;;;;;;;;4977768;28;45437;-78
2023/04/27 05:40:00;;;;;;;;;27.75;24.50;;;;;;;;4976826;28;46219;-77
2023/04/27 05:42:25;;;;;;;;;23.75;21.25;;;;;;;;4976749;28;45429;-79
2023/04/27 05:44:50;;;;;;;;;24.25;21.50;;;;;;;;4976556;28;45534;-78
2023/04/27 05:47:15;;;;;;;;;23.75;22.50;;;;;;;;4972079;28;45413;-78
2023/04/27 05:49:40;;;;;;;;;24.75;22.00;;;;;;;;4956812;28;48040;-78
2023/04/27 05:52:06;;;;;;;;;23.00;22.00;;;;;;;;4976256;28;45352;-78
2023/04/27 05:54:31;;;;;;;;;24.50;20.75;;;;;;;;4977769;28;45416;-78
2023/04/27 05:56:56;;;;;;;;;19.50;17.75;;;;;;;;4977394;28;45476;-77
2023/04/27 05:59:21;;;;;;;;;29.25;25.00;;;;;;;;4977172;28;45650;-78
2023/04/27 06:01:46;;;;;;;;;20.50;19.50;;;;;;;;4977064;28;45437;-78
2023/04/27 06:04:12;;;;;;;;;24.00;22.00;;;;;;;;4977284;28;45568;-78
2023/04/27 06:06:37;;;;;;;;;21.25;21.25;;;;;;;;4975900;28;45468;-78
2023/04/27 06:09:02;;;;;;;;;21.00;19.00;;;;;;;;4977021;28;45451;-77
2023/04/27 06:11:28;;;;;;;;;22.75;20.50;;;;;;;;4977444;28;45478;-78
2023/04/27 06:13:53;;;;;;;;;21.75;18.25;;;;;;;;4977596;28;45436;-79
2023/04/27 06:16:19;;;;;;;;;18.50;18.00;;;;;;;;4977242;28;45413;-78
2023/04/27 06:18:44;;;;;;;;;22.00;19.50;;;;;;;;4977165;28;46151;-78
2023/04/27 06:21:10;;;;;;;;;18.50;18.25;;;;;;;;4976911;28;45412;-78
2023/04/27 06:23:35;;;;;;;;;20.75;17.00;;;;;;;;4977322;28;45388;-78
2023/04/27 06:26:00;;;;;;;;;17.75;16.75;;;;;;;;4976778;28;45344;-78
2023/04/27 06:28:26;;;;;;;;;20.25;18.50;;;;;;;;4977240;28;45813;-78
2023/04/27 06:30:51;;;;;;;;;20.50;17.00;;;;;;;;4976898;28;45301;-78
2023/04/27 06:33:17;;;;;;;;;17.00;16.00;;;;;;;;4972468;28;45402;-79
2023/04/27 06:35:42;;;;;;;;;21.25;18.75;;;;;;;;4969389;28;45260;-79
2023/04/27 06:38:07;;;;;;;;;20.00;18.25;;;;;;;;4962798;28;46179;-78
2023/04/27 06:40:32;;;;;;;;;16.25;16.25;;;;;;;;4957865;28;45346;-79
2023/04/27 06:42:58;;;;;;;;;18.50;15.50;;;;;;;;4976168;28;45314;-78
2023/04/27 06:45:23;;;;;;;;;14.00;13.50;;;;;;;;4977339;28;45358;-79
2023/04/27 06:47:48;;;;;;;;;15.75;15.75;;;;;;;;4966006;28;45479;-79
2023/04/27 06:50:14;;;;;;;;;19.25;16.50;;;;;;;;4966481;28;45389;-79
2023/04/27 06:52:39;;;;;;;;;16.00;15.75;;;;;;;;4978251;28;45413;-78
2023/04/27 06:55:05;;;;;;;;;15.75;14.50;;;;;;;;4978409;28;45330;-78
2023/04/27 06:57:30;;;;;;;;;17.25;16.00;;;;;;;;4975830;28;47409;-78
2023/04/27 06:59:56;;;;;;;;;14.25;14.25;;;;;;;;4976523;28;45517;-78
2023/04/27 07:02:21;;;;;;;;;17.00;16.50;;;;;;;;4976961;28;45329;-78
2023/04/27 07:04:46;;;;;;;;;21.25;15.50;;;;;;;;4976543;28;45517;-78
2023/04/27 07:07:12;;;;;;;;;18.50;16.75;;;;;;;;4968378;28;45922;-78
2023/04/27 07:09:37;;;;;;;;;17.00;17.00;;;;;;;;4956880;28;45385;-78
2023/04/27 07:12:02;;;;;;;;;18.00;17.25;;;;;;;;4975080;28;45489;-78
2023/04/27 07:14:28;;;;;;;;;15.00;14.25;;;;;;;;4976440;28;45404;-79
2023/04/27 07:16:53;;;;;;;;;16.75;13.25;;;;;;;;4976640;28;45386;-79
2023/04/27 07:19:18;;;;;;;;;19.25;16.75;;;;;;;;4967916;28;45543;-77
2023/04/27 07:21:44;;;;;;;;;14.00;14.00;;;;;;;;4972478;28;45447;-77
2023/04/27 07:24:09;;;;;;;;;13.25;13.25;;;;;;;;4973643;28;45324;-77
2023/04/27 07:26:35;;;;;;;;;15.50;13.25;;;;;;;;4969858;28;45460;-78
2023/04/27 07:29:00;;;;;;;;;18.00;15.25;;;;;;;;4975955;28;45346;-77
2023/04/27 07:31:25;;;;;;;;;16.25;14.25;;;;;;;;4976300;28;45302;-78
2023/04/27 07:33:51;;;;;;;;;11.75;10.00;;;;;;;;4976206;28;45326;-78
2023/04/27 07:36:16;;;;;;;;;16.75;16.00;;;;;;;;4976085;28;46232;-77
2023/04/27 07:38:43;;;;;;;;;14.00;13.00;;;;;;;;4976240;28;45408;-77
2023/04/27 07:41:08;;;;;;;;;15.50;13.00;;;;;;;;4969988;28;45283;-78
2023/04/27 07:43:34;;;;;;;;;13.00;13.00;;;;;;;;4956559;28;45426;-78
2023/04/27 07:46:00;;;;;;;;;14.75;13.50;;;;;;;;4956449;28;46805;-77
2023/04/27 07:48:25;;;;;;;;;14.50;13.25;;;;;;;;4975975;28;45547;-78
2023/04/27 07:50:51;;;;;;;;;9.25;9.25;;;;;;;;4977456;28;45485;-78
2023/04/27 07:53:16;;;;;;;;;16.00;14.00;;;;;;;;4976479;28;45517;-79
2023/04/27 07:55:43;;;;;;;;;22.25;17.00;;;;;;;;4976241;28;46254;-78
2023/04/27 07:58:08;;;;;;;;;17.00;15.25;;;;;;;;4976354;28;45375;-78
2023/04/27 08:00:33;;;;;;;;;16.50;15.00;;;;;;;;4975305;28;46322;-78
2023/04/27 08:02:59;;;;;;;;;13.00;11.75;;;;;;;;4976256;28;45442;-78
2023/04/27 08:05:24;;;;;;;;;15.00;14.50;;;;;;;;4976046;28;46555;-78
2023/04/27 08:07:52;;;;;;;;;15.25;14.00;;;;;;;;4976117;28;45323;-78
2023/04/27 08:10:17;;;;;;;;;14.75;14.00;;;;;;;;4974557;28;45492;-79
2023/04/27 08:12:42;;;;;;;;;15.50;13.75;;;;;;;;4975960;28;45421;-78
2023/04/27 08:15:09;;;;;;;;;17.75;15.00;;;;;;;;4975734;28;45679;-78
2023/04/27 08:17:35;;;;;;;;;21.00;16.00;;;;;;;;4974362;28;45439;-78
2023/04/27 08:20:01;;;;;;;;;17.00;16.25;;;;;;;;4974058;28;45330;-78
2023/04/27 08:22:26;;;;;;;;;15.00;15.00;;;;;;;;4975736;28;45406;-79
2023/04/27 08:24:51;;;;;;;;;15.75;13.75;;;;;;;;4975290;28;45434;-79
2023/04/27 08:27:16;;;;;;;;;16.25;15.25;;;;;;;;4975124;28;45510;-78
2023/04/27 08:29:46;;;;;;;;;13.50;11.75;;;;;;;;4974279;28;45414;-79
2023/04/27 08:32:11;;;;;;;;;17.75;15.00;;;;;;;;4975130;28;45532;-78
2023/04/27 08:34:37;;;;;;;;;15.50;14.75;;;;;;;;4975221;28;46990;-77
2023/04/27 08:37:03;;;;;;;;;16.00;12.75;;;;;;;;4975280;28;45363;-78
2023/04/27 08:39:28;;;;;;;;;15.50;13.00;;;;;;;;4975400;28;45239;-79
2023/04/27 08:41:54;;;;;;;;;15.25;12.50;;;;;;;;4962948;28;45330;-78
2023/04/27 08:44:19;;;;;;;;;17.00;15.25;;;;;;;;4954549;28;45836;-78
2023/04/27 08:46:44;;;;;;;;;13.75;12.75;;;;;;;;4955713;28;45401;-78
2023/04/27 08:49:10;;;;;;;;;11.25;10.75;;;;;;;;4956297;28;45333;-80
2023/04/27 08:51:35;;;;;;;;;13.25;11.75;;;;;;;;4970206;28;45750;-79
2023/04/27 08:54:00;;;;;;;;;9.75;9.75;;;;;;;;4974888;28;45504;-79
2023/04/27 08:56:27;;;;;;;;;10.00;10.00;;;;;;;;4974960;28;45386;-79
2023/04/27 08:58:52;;;;;;;;;8.25;8.00;;;;;;;;4975491;28;45549;-79
2023/04/27 09:01:17;;;;;;;;;12.00;11.50;;;;;;;;4974818;28;45352;-79
2023/04/27 09:03:45;;;;;;;;;12.00;12.00;;;;;;;;4974785;28;45397;-79
2023/04/27 09:06:10;;;;;;;;;10.50;10.25;;;;;;;;4974969;28;45348;-80
2023/04/27 09:08:43;;;;;;;;;4.25;4.00;;;;;;;;4977174;28;45449;-79
2023/04/27 09:11:08;;;;;;;;;9.75;9.75;;;;;;;;4978658;28;45303;-80
2023/04/27 09:13:37;;;;;;;;;14.00;13.25;;;;;;;;4978363;28;45550;-80
2023/04/27 09:16:02;;;;;;;;;11.50;10.50;;;;;;;;4977867;28;45386;-80
2023/04/27 09:18:28;;;;;;;;;10.75;8.25;;;;;;;;4978145;28;45495;-79
2023/04/27 09:20:53;;;;;;;;;10.75;9.75;;;;;;;;4978138;28;45470;-79
2023/04/27 09:23:26;;;;;;;;;6.75;6.75;;;;;;;;4978150;28;45309;-79
2023/04/27 09:25:51;;;;;;;;;11.75;8.75;;;;;;;;4976903;28;45356;-80
2023/04/27 09:28:17;;;;;;;;;10.75;10.00;;;;;;;;4977804;28;45500;-81
2023/04/27 09:30:50;;;;;;;;;11.00;11.00;;;;;;;;4977949;28;45374;-80
2023/04/27 09:33:21;;;;;;;;;11.75;11.00;;;;;;;;4978499;28;46457;-80
2023/04/27 09:35:47;;;;;;;;;9.50;9.50;;;;;;;;4977761;28;45420;-79
2023/04/27 09:38:13;;;;;;;;;10.00;8.75;;;;;;;;4977805;28;45566;-80
2023/04/27 09:40:39;;;;;;;;;12.75;7.50;;;;;;;;4975454;28;45446;-80
2023/04/27 09:43:05;;;;;;;;;10.75;8.25;;;;;;;;4956787;28;45744;-80
2023/04/27 09:45:32;;;;;;;;;5.75;5.50;;;;;;;;4957177;28;45469;-81
2023/04/27 09:47:57;;;;;;;;;6.00;6.00;;;;;;;;4976260;28;45424;-80
2023/04/27 09:50:22;;;;;;;;;7.75;6.25;;;;;;;;4977990;28;45507;-80
2023/04/27 09:52:48;;;;;;;;;7.00;7.00;;;;;;;;4978008;28;45644;-81
2023/04/27 09:55:33;;;;;;;;;7.75;7.75;;;;;;;;4978428;28;45291;-82
2023/04/27 09:58:16;;;;;;;;;10.00;6.75;;;;;;;;4956949;28;45423;-80
2023/04/27 10:00:45;;;;;;;;;5.75;5.75;;;;;;;;4957606;28;45399;-80
2023/04/27 10:03:19;;;;;;;;;6.25;6.25;;;;;;;;4957891;28;46084;-81
2023/04/27 10:05:47;;;;;;;;;5.25;5.00;;;;;;;;4958109;28;45536;-80
2023/04/27 10:08:13;;;;;;;;;4.00;4.00;;;;;;;;4956836;28;45484;-82
2023/04/27 10:10:42;;;;;;;;;5.00;3.50;;;;;;;;4955967;28;45459;-81
2023/04/27 10:13:08;;;;;;;;;4.75;3.25;;;;;;;;4955647;28;45537;-81
2023/04/27 10:15:38;;;;;;;;;3.50;3.00;;;;;;;;4955483;28;45313;-80
2023/04/27 10:18:04;;;;;;;;;4.00;4.00;;;;;;;;4938907;28;45343;-81
2023/04/27 10:20:30;;;;;;;;;5.00;4.00;;;;;;;;4955717;28;45471;-79
2023/04/27 10:22:55;;;;;;;;;4.00;4.00;;;;;;;;4955537;28;45276;-79
2023/04/27 10:25:27;;;;;;;;;7.00;5.00;;;;;;;;4955390;28;45291;-79
2023/04/27 10:28:00;;;;;;;;;4.25;4.25;;;;;;;;4954976;28;45391;-80
2023/04/27 10:30:29;;;;;;;;;4.75;3.00;;;;;;;;4955627;28;45537;-79
2023/04/27 10:32:56;;;;;;;;;2.25;2.25;;;;;;;;4938776;28;46811;-79
2023/04/27 10:35:31;;;;;;;;;5.00;4.50;;;;;;;;4960348;28;45350;-79
2023/04/27 10:38:04;;;;;;;;;2.75;2.75;;;;;;;;4976913;28;45369;-79
2023/04/27 10:40:32;;;;;;;;;4.50;3.50;;;;;;;;4975930;28;45424;-78
2023/04/27 10:43:06;;;;;;;;;5.00;4.00;;;;;;;;4957156;28;46118;-78
2023/04/27 10:45:32;;;;;;;;;3.50;3.50;;;;;;;;4957310;28;45382;-80
2023/04/27 10:47:59;;;;;;;;;6.25;5.50;;;;;;;;4956091;28;45449;-78
2023/04/27 10:50:25;;;;;;;;;6.50;6.00;;;;;;;;4962659;28;45383;-78
2023/04/27 10:52:50;;;;;;;;;3.75;3.75;;;;;;;;4976628;28;46385;-78
2023/04/27 10:55:19;;;;;;;;;5.75;5.25;;;;;;;;4976802;28;45416;-79
2023/04/27 10:57:54;;;;;;;;;6.00;6.00;;;;;;;;4977115;28;45398;-81
2023/04/27 11:00:30;;;;;;;;;5.00;4.00;;;;;;;;4978482;28;45396;-82
2023/04/27 11:02:56;;;;;;;;;7.50;5.25;;;;;;;;4977342;28;45448;-81
2023/04/27 11:05:24;;;;;;;;;4.00;4.00;;;;;;;;4977014;28;45338;-81
2023/04/27 11:07:50;;;;;;;;;5.50;5.50;;;;;;;;4977047;28;45195;-79
2023/04/27 11:10:18;;;;;;;;;4.25;4.25;;;;;;;;4976637;28;45381;-81
2023/04/27 11:12:44;;;;;;;;;5.00;5.00;;;;;;;;4976275;28;45420;-80
2023/04/27 11:15:10;;;;;;;;;4.75;4.75;;;;;;;;4976257;28;45409;-81
2023/04/27 11:17:35;;;;;;;;;5.25;5.25;;;;;;;;4976009;28;45669;-82
2023/04/27 11:20:01;;;;;;;;;4.00;4.00;;;;;;;;4976616;28;45411;-81
2023/04/27 11:22:26;;;;;;;;;4.00;4.00;;;;;;;;4976876;28;46252;-82
2023/04/27 11:24:51;;;;;;;;;8.00;6.50;;;;;;;;4976736;28;45414;-82
2023/04/27 11:27:18;;;;;;;;;7.00;5.75;;;;;;;;4976792;28;45330;-81
2023/04/27 11:29:43;;;;;;;;;4.50;3.50;;;;;;;;4975339;28;45542;-81
2023/04/27 11:32:17;;;;;;;;;18.00;15.75;;;;;;;;4976009;28;45849;-82
2023/04/27 11:34:47;;;;;;;;;6.50;5.75;;;;;;;;4976188;28;45261;-81
2023/04/27 11:37:19;;;;;;;;;4.00;4.00;;;;;;;;4975134;28;45495;-81
2023/04/27 11:39:45;;;;;;;;;5.25;4.75;;;;;;;;4976120;28;45318;-81
2023/04/27 11:42:13;;;;;;;;;4.00;4.00;;;;;;;;4961416;28;45472;-82
2023/04/27 11:44:39;;;;;;;;;3.00;3.00;;;;;;;;4956912;28;45445;-82
2023/04/27 11:47:05;;;;;;;;;6.50;5.00;;;;;;;;4956860;28;45558;-81
2023/04/27 11:49:30;;;;;;;;;5.50;5.50;;;;;;;;4956641;28;45464;-82
2023/04/27 11:51:56;;;;;;;;;4.50;4.00;;;;;;;;4956640;28;45309;-82
2023/04/27 11:54:27;;;;;;;;;5.00;5.00;;;;;;;;4956309;28;45337;-82
2023/04/27 11:56:52;;;;;;;;;4.00;4.00;;;;;;;;4955441;28;45347;-82
2023/04/27 11:59:21;;;;;;;;;5.50;5.25;;;;;;;;4969305;28;45394;-81
2023/04/27 12:01:47;;;;;;;;;5.50;5.00;;;;;;;;4976076;28;46519;-81
2023/04/27 12:04:12;;;;;;;;;5.50;3.75;;;;;;;;4975628;28;45441;-81
2023/04/27 12:06:37;;;;;;;;;6.00;5.00;;;;;;;;4976208;28;45305;-81
2023/04/27 12:09:04;;;;;;;;;5.50;4.75;;;;;;;;4975907;28;45417;-81
2023/04/27 12:11:29;;;;;;;;;3.75;3.75;;;;;;;;4975664;28;45454;-81
2023/04/27 12:13:55;;;;;;;;;3.50;3.50;;;;;;;;4974314;28;45513;-78
2023/04/27 12:16:21;;;;;;;;;4.25;4.25;;;;;;;;4976090;28;45332;-81
2023/04/27 12:18:47;;;;;;;;;4.00;4.00;;;;;;;;4975442;28;45532;-81
2023/04/27 12:21:13;;;;;;;;;5.50;4.00;;;;;;;;4975738;28;46068;-79
2023/04/27 12:23:38;;;;;;;;;5.25;5.25;;;;;;;;4975761;28;45392;-80
2023/04/27 12:26:04;;;;;;;;;7.25;4.00;;;;;;;;4974314;28;45549;-81
2023/04/27 12:28:29;;;;;;;;;5.00;5.00;;;;;;;;4975723;28;45345;-80
2023/04/27 12:30:54;;;;;;;;;3.50;3.00;;;;;;;;4975393;28;46367;-80
2023/04/27 12:33:19;;;;;;;;;3.00;3.00;;;;;;;;4975815;28;45429;-81
2023/04/27 12:35:44;;;;;;;;;4.00;4.00;;;;;;;;4975514;28;45321;-80
2023/04/27 12:38:09;;;;;;;;;3.50;3.50;;;;;;;;4975405;28;45325;-80
2023/04/27 12:40:35;;;;;;;;;5.00;5.00;;;;;;;;4972407;28;48428;-80
2023/04/27 12:43:00;;;;;;;;;6.00;5.00;;;;;;;;4958211;28;45255;-79
2023/04/27 12:45:25;;;;;;;;;6.00;5.00;;;;;;;;4959463;28;45266;-81
2023/04/27 12:47:52;;;;;;;;;4.00;4.00;;;;;;;;4959750;28;45418;-81
2023/04/27 12:50:17;;;;;;;;;4.00;4.00;;;;;;;;4958412;28;47354;-80
2023/04/27 12:52:42;;;;;;;;;6.50;4.50;;;;;;;;4959036;28;45203;-81
2023/04/27 12:55:08;;;;;;;;;5.00;5.00;;;;;;;;4959736;28;45334;-80
2023/04/27 12:57:33;;;;;;;;;7.00;5.00;;;;;;;;4959517;28;45484;-80
2023/04/27 12:59:58;;;;;;;;;5.00;5.00;;;;;;;;4957878;28;48162;-81
2023/04/27 13:02:25;;;;;;;;;5.00;5.00;;;;;;;;4959429;28;45325;-81
2023/04/27 13:04:50;;;;;;;;;3.00;3.00;;;;;;;;4959194;28;45413;-81
2023/04/27 13:07:16;;;;;;;;;4.75;3.25;;;;;;;;4959142;28;45413;-80
2023/04/27 13:09:41;;;;;;;;;3.00;3.00;;;;;;;;4959640;28;46080;-80
2023/04/27 13:12:06;;;;;;;;;6.75;5.00;;;;;;;;4978701;28;45483;-82
2023/04/27 13:14:33;;;;;;;;;4.25;4.25;;;;;;;;4979184;28;45420;-81
2023/04/27 13:16:58;;;;;;;;;4.75;4.00;;;;;;;;4979151;28;45588;-81
2023/04/27 13:19:24;;;;;;;;;7.25;5.50;;;;;;;;4977796;28;48159;-81
2023/04/27 13:21:49;;;;;;;;;5.50;5.00;;;;;;;;4979022;28;45389;-81
2023/04/27 13:24:16;;;;;;;;;4.75;4.00;;;;;;;;4979508;28;45548;-79
2023/04/27 13:26:41;;;;;;;;;5.00;5.00;;;;;;;;4980339;28;45399;-80
2023/04/27 13:29:06;;;;;;;;;6.00;5.25;;;;;;;;4979182;28;45475;-80
2023/04/27 13:31:31;;;;;;;;;6.00;6.00;;;;;;;;4980342;28;45568;-80
2023/04/27 13:33:57;;;;;;;;;3.50;3.50;;;;;;;;4979707;28;45390;-80
2023/04/27 13:36:23;;;;;;;;;7.00;5.00;;;;;;;;4978348;28;45455;-80
2023/04/27 13:38:48;;;;;;;;;3.75;3.75;;;;;;;;4977089;28;48348;-80
2023/04/27 13:41:13;;;;;;;;;5.00;4.75;;;;;;;;4970812;28;45397;-80
2023/04/27 13:43:39;;;;;;;;;4.50;4.50;;;;;;;;4958492;28;45488;-81
2023/04/27 13:46:04;;;;;;;;;3.75;3.75;;;;;;;;4957416;28;45370;-80
2023/04/27 13:48:30;;;;;;;;;5.00;5.00;;;;;;;;4958891;28;45404;-81
2023/04/27 13:50:55;;;;;;;;;4.00;4.00;;;;;;;;4966382;28;45418;-81
2023/04/27 13:53:20;;;;;;;;;5.00;5.00;;;;;;;;4976557;28;45758;-81
2023/04/27 13:55:46;;;;;;;;;5.75;5.75;;;;;;;;4978251;28;45366;-81
2023/04/27 13:58:12;;;;;;;;;4.00;4.00;;;;;;;;4978113;28;45416;-81
2023/04/27 14:00:37;;;;;;;;;5.00;4.75;;;;;;;;4976777;28;45305;-81
2023/04/27 14:03:03;;;;;;;;;7.00;7.00;;;;;;;;4977878;28;45266;-81
2023/04/27 14:05:28;;;;;;;;;4.50;4.50;;;;;;;;4977836;28;45302;-81
2023/04/27 14:07:54;;;;;;;;;4.00;4.00;;;;;;;;4977888;28;45622;-81
2023/04/27 14:10:19;;;;;;;;;4.00;4.00;;;;;;;;4978030;28;45351;-82
2023/04/27 14:12:45;;;;;;;;;4.25;4.25;;;;;;;;4976702;28;45449;-81
2023/04/27 14:15:10;;;;;;;;;4.00;3.00;;;;;;;;4977599;28;45295;-81
2023/04/27 14:17:35;;;;;;;;;5.00;4.00;;;;;;;;4977633;28;45337;-81